sensor_id;sensor_type;location;lat;lon;timestamp;pressure;altitude;pressure_sealevel;temperature;humidity
19600;BME280;9947;57.722;12.012;2024-03-29T00:00:37;95263.44;;;6.05;100.00
19600;BME280;9947;57.722;12.012;2024-03-29T00:03:05;95256.66;;;6.03;100.00
19600;BME280;9947;57.722;12.012;2024-03-29T00:05:32;95243.41;;;6.08;100.00
19600;BME280;9947;57.722;12.012;2024-03-29T00:07:58;95223.81;;;6.07;100.00
19600;BME280;9947;57.722;12.012;2024-03-29T00:10:25;95227.09;;;6.09;100.00
19600;BME280;9947;57.722;12.012;2024-03-29T00:12:55;95215.09;;;6.12;100.00
19600;BME280;9947;57.722;12.012;2024-03-29T00:15:24;95221.72;;;6.09;100.00
19600;BME280;9947;57.722;12.012;2024-03-29T00:17:52;95228.50;;;6.12;100.00
19600;BME280;9947;57.722;12.012;2024-03-29T00:20:18;95240.50;;;6.09;100.00
19600;BME280;9947;57.722;12.012;2024-03-29T00:22:45;95267.75;;;6.06;100.00
19600;BME280;9947;57.722;12.012;2024-03-29T00:27:39;95309.22;;;6.04;100.00
19600;BME280;9947;57.722;12.012;2024-03-29T00:30:08;95327.28;;;6.08;100.00
19600;BME280;9947;57.722;12.012;2024-03-29T00:32:33;95343.59;;;6.07;100.00
19600;BME280;9947;57.722;12.012;2024-03-29T00:35:00;95348.38;;;6.05;100.00
19600;BME280;9947;57.722;12.012;2024-03-29T00:37:26;95355.22;;;6.01;100.00
19600;BME280;9947;57.722;12.012;2024-03-29T00:39:54;95365.72;;;6.02;100.00
19600;BME280;9947;57.722;12.012;2024-03-29T00:42:20;95383.19;;;6.05;100.00
19600;BME280;9947;57.722;12.012;2024-03-29T00:44:46;95383.81;;;6.07;100.00
19600;BME280;9947;57.722;12.012;2024-03-29T00:49:44;95376.59;;;6.07;100.00
19600;BME280;9947;57.722;12.012;2024-03-29T00:54:36;95399.31;;;5.98;100.00
19600;BME280;9947;57.722;12.012;2024-03-29T00:57:05;95390.19;;;6.06;100.00
19600;BME280;9947;57.722;12.012;2024-03-29T00:59:31;95408.16;;;6.05;100.00
19600;BME280;9947;57.722;12.012;2024-03-29T01:01:59;95405.09;;;6.02;100.00
19600;BME280;9947;57.722;12.012;2024-03-29T01:04:26;95407.09;;;6.06;100.00
19600;BME280;9947;57.722;12.012;2024-03-29T01:06:54;95402.13;;;6.10;100.00
19600;BME280;9947;57.722;12.012;2024-03-29T01:09:22;95400.25;;;6.10;100.00
19600;BME280;9947;57.722;12.012;2024-03-29T01:11:50;95396.75;;;6.10;100.00
19600;BME280;9947;57.722;12.012;2024-03-29T01:14:17;95400.25;;;6.10;100.00
19600;BME280;9947;57.722;12.012;2024-03-29T01:16:44;95403.97;;;6.09;100.00
19600;BME280;9947;57.722;12.012;2024-03-29T01:21:37;95402.28;;;6.15;100.00
19600;BME280;9947;57.722;12.012;2024-03-29T01:24:05;95402.06;;;6.16;100.00
19600;BME280;9947;57.722;12.012;2024-03-29T01:26:30;95404.13;;;6.14;100.00
19600;BME280;9947;57.722;12.012;2024-03-29T01:28:58;95413.38;;;6.18;100.00
19600;BME280;9947;57.722;12.012;2024-03-29T01:31:24;95409.28;;;6.16;100.00
19600;BME280;9947;57.722;12.012;2024-03-29T01:33:50;95418.97;;;6.17;100.00
19600;BME280;9947;57.722;12.012;2024-03-29T01:36:18;95429.91;;;6.15;100.00
19600;BME280;9947;57.722;12.012;2024-03-29T01:38:46;95441.22;;;6.17;100.00
19600;BME280;9947;57.722;12.012;2024-03-29T01:43:39;95456.88;;;6.21;100.00
19600;BME280;9947;57.722;12.012;2024-03-29T01:46:07;95466.38;;;6.16;100.00
19600;BME280;9947;57.722;12.012;2024-03-29T01:48:35;95463.66;;;6.23;100.00
19600;BME280;9947;57.722;12.012;2024-03-29T01:51:01;95484.34;;;6.16;100.00
19600;BME280;9947;57.722;12.012;2024-03-29T01:53:30;95502.88;;;6.17;100.00
19600;BME280;9947;57.722;12.012;2024-03-29T01:56:00;95521.91;;;6.09;100.00
19600;BME280;9947;57.722;12.012;2024-03-29T01:58:30;95546.03;;;6.09;100.00
19600;BME280;9947;57.722;12.012;2024-03-29T02:01:00;95585.03;;;6.05;100.00
19600;BME280;9947;57.722;12.012;2024-03-29T02:03:28;95629.78;;;6.05;100.00
19600;BME280;9947;57.722;12.012;2024-03-29T02:05:56;95660.28;;;6.04;100.00
19600;BME280;9947;57.722;12.012;2024-03-29T02:08:26;95660.06;;;6.05;100.00
19600;BME280;9947;57.722;12.012;2024-03-29T02:10:52;95680.28;;;6.08;100.00
19600;BME280;9947;57.722;12.012;2024-03-29T02:13:19;95683.16;;;6.06;100.00
19600;BME280;9947;57.722;12.012;2024-03-29T02:15:45;95690.00;;;6.02;100.00
19600;BME280;9947;57.722;12.012;2024-03-29T02:18:14;95698.84;;;6.03;100.00
19600;BME280;9947;57.722;12.012;2024-03-29T02:20:41;95719.06;;;5.99;100.00
19600;BME280;9947;57.722;12.012;2024-03-29T02:25:39;95750.41;;;5.85;100.00
19600;BME280;9947;57.722;12.012;2024-03-29T02:28:07;95775.75;;;5.82;100.00
19600;BME280;9947;57.722;12.012;2024-03-29T02:30:34;95767.72;;;5.69;100.00
19600;BME280;9947;57.722;12.012;2024-03-29T02:33:02;95786.91;;;5.66;100.00
19600;BME280;9947;57.722;12.012;2024-03-29T02:35:30;95795.56;;;5.62;100.00
19600;BME280;9947;57.722;12.012;2024-03-29T02:37:58;95808.34;;;5.53;100.00
19600;BME280;9947;57.722;12.012;2024-03-29T02:40:25;95830.38;;;5.48;100.00
19600;BME280;9947;57.722;12.012;2024-03-29T02:42:53;95847.66;;;5.46;100.00
19600;BME280;9947;57.722;12.012;2024-03-29T02:45:22;95862.91;;;5.45;100.00
19600;BME280;9947;57.722;12.012;2024-03-29T02:47:49;95884.31;;;5.45;100.00
19600;BME280;9947;57.722;12.012;2024-03-29T02:50:17;95896.47;;;5.41;100.00
19600;BME280;9947;57.722;12.012;2024-03-29T02:52:44;95900.19;;;5.40;100.00
19600;BME280;9947;57.722;12.012;2024-03-29T02:57:36;95903.69;;;5.34;100.00
19600;BME280;9947;57.722;12.012;2024-03-29T03:00:08;95911.69;;;5.28;100.00
19600;BME280;9947;57.722;12.012;2024-03-29T03:02:37;95918.91;;;5.20;100.00
19600;BME280;9947;57.722;12.012;2024-03-29T03:05:05;95927.09;;;5.19;100.00
19600;BME280;9947;57.722;12.012;2024-03-29T03:07:31;95942.53;;;5.10;100.00
19600;BME280;9947;57.722;12.012;2024-03-29T03:12:42;95976.88;;;5.00;100.00
19600;BME280;9947;57.722;12.012;2024-03-29T03:17:42;96016.53;;;4.90;100.00
19600;BME280;9947;57.722;12.012;2024-03-29T03:20:13;96047.38;;;4.86;100.00
19600;BME280;9947;57.722;12.012;2024-03-29T03:22:41;96068.53;;;4.81;100.00
19600;BME280;9947;57.722;12.012;2024-03-29T03:27:34;96119.97;;;4.76;100.00
19600;BME280;9947;57.722;12.012;2024-03-29T03:30:02;96154.94;;;4.75;100.00
19600;BME280;9947;57.722;12.012;2024-03-29T03:32:29;96175.59;;;4.66;100.00
19600;BME280;9947;57.722;12.012;2024-03-29T03:35:00;96198.41;;;4.62;100.00
19600;BME280;9947;57.722;12.012;2024-03-29T03:37:26;96234.97;;;4.55;100.00
19600;BME280;9947;57.722;12.012;2024-03-29T03:39:53;96256.94;;;4.50;100.00
19600;BME280;9947;57.722;12.012;2024-03-29T03:42:20;96279.28;;;4.43;100.00
19600;BME280;9947;57.722;12.012;2024-03-29T03:44:47;96308.84;;;4.41;100.00
19600;BME280;9947;57.722;12.012;2024-03-29T03:49:38;96379.09;;;4.35;100.00
19600;BME280;9947;57.722;12.012;2024-03-29T03:52:08;96407.94;;;4.40;100.00
19600;BME280;9947;57.722;12.012;2024-03-29T03:54:34;96454.41;;;4.39;100.00
19600;BME280;9947;57.722;12.012;2024-03-29T03:57:01;96479.13;;;4.41;100.00
19600;BME280;9947;57.722;12.012;2024-03-29T03:59:27;96501.34;;;4.41;100.00
19600;BME280;9947;57.722;12.012;2024-03-29T04:01:55;96533.75;;;4.46;100.00
19600;BME280;9947;57.722;12.012;2024-03-29T04:04:21;96559.00;;;4.44;100.00
19600;BME280;9947;57.722;12.012;2024-03-29T04:06:49;96592.38;;;4.48;100.00
19600;BME280;9947;57.722;12.012;2024-03-29T04:09:16;96612.50;;;4.58;100.00
19600;BME280;9947;57.722;12.012;2024-03-29T04:11:43;96637.19;;;4.69;100.00
19600;BME280;9947;57.722;12.012;2024-03-29T04:14:09;96647.63;;;4.78;100.00
19600;BME280;9947;57.722;12.012;2024-03-29T04:16:37;96658.22;;;4.86;100.00
19600;BME280;9947;57.722;12.012;2024-03-29T04:21:31;96676.19;;;5.01;100.00
19600;BME280;9947;57.722;12.012;2024-03-29T04:26:24;96652.28;;;5.14;100.00
19600;BME280;9947;57.722;12.012;2024-03-29T04:28:51;96623.47;;;5.16;100.00
19600;BME280;9947;57.722;12.012;2024-03-29T04:31:20;96601.34;;;5.22;100.00
19600;BME280;9947;57.722;12.012;2024-03-29T04:33:46;96567.63;;;5.28;100.00
19600;BME280;9947;57.722;12.012;2024-03-29T04:36:12;96515.38;;;5.32;100.00
19600;BME280;9947;57.722;12.012;2024-03-29T04:38:41;96455.25;;;5.34;100.00
19600;BME280;9947;57.722;12.012;2024-03-29T04:41:09;96416.81;;;5.42;100.00
19600;BME280;9947;57.722;12.012;2024-03-29T04:43:37;96360.84;;;5.47;100.00
19600;BME280;9947;57.722;12.012;2024-03-29T04:46:07;96303.56;;;5.48;100.00
19600;BME280;9947;57.722;12.012;2024-03-29T04:48:35;96236.44;;;5.49;100.00
19600;BME280;9947;57.722;12.012;2024-03-29T04:51:02;96172.19;;;5.56;100.00
19600;BME280;9947;57.722;12.012;2024-03-29T04:53:29;96107.69;;;5.57;100.00
19600;BME280;9947;57.722;12.012;2024-03-29T04:55:57;96036.00;;;5.60;100.00
19600;BME280;9947;57.722;12.012;2024-03-29T04:58:25;95975.44;;;5.65;100.00
19600;BME280;9947;57.722;12.012;2024-03-29T05:00:54;95902.50;;;5.70;100.00
19600;BME280;9947;57.722;12.012;2024-03-29T05:03:23;95822.13;;;5.70;100.00
19600;BME280;9947;57.722;12.012;2024-03-29T05:05:50;95774.72;;;5.70;100.00
19600;BME280;9947;57.722;12.012;2024-03-29T05:08:19;95717.25;;;5.73;100.00
19600;BME280;9947;57.722;12.012;2024-03-29T05:10:49;95666.53;;;5.71;100.00
19600;BME280;9947;57.722;12.012;2024-03-29T05:13:18;95627.00;;;5.73;100.00
19600;BME280;9947;57.722;12.012;2024-03-29T05:15:45;95586.38;;;5.76;100.00
19600;BME280;9947;57.722;12.012;2024-03-29T05:18:15;95556.91;;;5.76;100.00
19600;BME280;9947;57.722;12.012;2024-03-29T05:20:43;95517.94;;;5.80;100.00
19600;BME280;9947;57.722;12.012;2024-03-29T05:23:15;95486.63;;;5.81;100.00
19600;BME280;9947;57.722;12.012;2024-03-29T05:25:42;95473.00;;;5.82;100.00
19600;BME280;9947;57.722;12.012;2024-03-29T05:28:09;95449.06;;;5.87;100.00
19600;BME280;9947;57.722;12.012;2024-03-29T05:30:40;95437.50;;;5.87;100.00
19600;BME280;9947;57.722;12.012;2024-03-29T05:33:07;95402.06;;;5.92;100.00
19600;BME280;9947;57.722;12.012;2024-03-29T05:35:35;95375.66;;;5.95;100.00
19600;BME280;9947;57.722;12.012;2024-03-29T05:38:04;95347.16;;;6.01;100.00
19600;BME280;9947;57.722;12.012;2024-03-29T05:40:31;95325.28;;;6.04;100.00
19600;BME280;9947;57.722;12.012;2024-03-29T05:43:02;95304.00;;;6.09;100.00
19600;BME280;9947;57.722;12.012;2024-03-29T05:45:31;95292.81;;;6.12;100.00
19600;BME280;9947;57.722;12.012;2024-03-29T05:50:23;95244.63;;;6.24;100.00
19600;BME280;9947;57.722;12.012;2024-03-29T05:52:53;95216.19;;;6.41;100.00
19600;BME280;9947;57.722;12.012;2024-03-29T05:55:21;95179.88;;;6.57;100.00
19600;BME280;9947;57.722;12.012;2024-03-29T05:57:48;95123.72;;;6.97;100.00
19600;BME280;9947;57.722;12.012;2024-03-29T06:00:15;95038.19;;;7.24;100.00
19600;BME280;9947;57.722;12.012;2024-03-29T06:02:43;94978.53;;;7.33;100.00
19600;BME280;9947;57.722;12.012;2024-03-29T06:05:13;94932.81;;;7.45;100.00
19600;BME280;9947;57.722;12.012;2024-03-29T06:07:40;94917.81;;;7.32;100.00
19600;BME280;9947;57.722;12.012;2024-03-29T06:10:11;94902.63;;;7.26;100.00
19600;BME280;9947;57.722;12.012;2024-03-29T06:12:40;94900.53;;;7.28;100.00
19600;BME280;9947;57.722;12.012;2024-03-29T06:15:09;94911.28;;;7.28;100.00
19600;BME280;9947;57.722;12.012;2024-03-29T06:17:54;94931.75;;;7.18;100.00
19600;BME280;9947;57.722;12.012;2024-03-29T06:20:21;94933.00;;;7.27;100.00
19600;BME280;9947;57.722;12.012;2024-03-29T06:22:48;94940.00;;;7.28;100.00
19600;BME280;9947;57.722;12.012;2024-03-29T06:25:18;94940.13;;;7.21;100.00
19600;BME280;9947;57.722;12.012;2024-03-29T06:27:45;94964.63;;;7.25;100.00
19600;BME280;9947;57.722;12.012;2024-03-29T06:30:14;94965.34;;;7.32;100.00
19600;BME280;9947;57.722;12.012;2024-03-29T06:32:42;94966.16;;;7.32;100.00
19600;BME280;9947;57.722;12.012;2024-03-29T06:35:10;94975.03;;;7.21;100.00
19600;BME280;9947;57.722;12.012;2024-03-29T06:37:38;94968.34;;;7.35;100.00
19600;BME280;9947;57.722;12.012;2024-03-29T06:40:05;94968.31;;;7.47;100.00
19600;BME280;9947;57.722;12.012;2024-03-29T06:42:35;94966.41;;;7.59;100.00
19600;BME280;9947;57.722;12.012;2024-03-29T06:47:32;94926.53;;;8.13;100.00
19600;BME280;9947;57.722;12.012;2024-03-29T06:52:24;94933.47;;;8.43;100.00
19600;BME280;9947;57.722;12.012;2024-03-29T06:54:51;94954.81;;;8.49;100.00
19600;BME280;9947;57.722;12.012;2024-03-29T06:57:18;94952.50;;;8.91;100.00
19600;BME280;9947;57.722;12.012;2024-03-29T06:59:52;94983.25;;;8.79;100.00
19600;BME280;9947;57.722;12.012;2024-03-29T07:02:19;94995.34;;;8.93;100.00
19600;BME280;9947;57.722;12.012;2024-03-29T07:04:48;95033.19;;;8.70;100.00
19600;BME280;9947;57.722;12.012;2024-03-29T07:07:16;95054.69;;;8.53;100.00
19600;BME280;9947;57.722;12.012;2024-03-29T07:09:43;95071.66;;;8.53;100.00
19600;BME280;9947;57.722;12.012;2024-03-29T07:12:11;95087.63;;;8.43;100.00
19600;BME280;9947;57.722;12.012;2024-03-29T07:14:38;95115.25;;;7.98;100.00
19600;BME280;9947;57.722;12.012;2024-03-29T07:17:10;95104.94;;;8.07;100.00
19600;BME280;9947;57.722;12.012;2024-03-29T07:19:38;95128.78;;;8.03;100.00
19600;BME280;9947;57.722;12.012;2024-03-29T07:22:06;95146.19;;;8.01;100.00
19600;BME280;9947;57.722;12.012;2024-03-29T07:24:34;95155.13;;;7.90;100.00
19600;BME280;9947;57.722;12.012;2024-03-29T07:27:02;95171.38;;;7.83;100.00
19600;BME280;9947;57.722;12.012;2024-03-29T07:29:30;95175.44;;;7.97;100.00
19600;BME280;9947;57.722;12.012;2024-03-29T07:34:27;95177.59;;;8.24;100.00
19600;BME280;9947;57.722;12.012;2024-03-29T07:36:54;95175.00;;;8.41;100.00
19600;BME280;9947;57.722;12.012;2024-03-29T07:39:24;95183.34;;;8.56;100.00
19600;BME280;9947;57.722;12.012;2024-03-29T07:41:52;95184.97;;;8.69;100.00
19600;BME280;9947;57.722;12.012;2024-03-29T07:44:19;95155.72;;;8.89;100.00
19600;BME280;9947;57.722;12.012;2024-03-29T07:46:46;95179.25;;;8.82;100.00
19600;BME280;9947;57.722;12.012;2024-03-29T07:49:15;95162.81;;;8.95;100.00
19600;BME280;9947;57.722;12.012;2024-03-29T07:51:50;95165.06;;;9.15;100.00
19600;BME280;9947;57.722;12.012;2024-03-29T07:54:17;95181.03;;;9.55;100.00
19600;BME280;9947;57.722;12.012;2024-03-29T07:56:44;95227.84;;;9.66;100.00
19600;BME280;9947;57.722;12.012;2024-03-29T07:59:11;95314.09;;;9.82;100.00
19600;BME280;9947;57.722;12.012;2024-03-29T08:01:39;95340.66;;;9.74;100.00
19600;BME280;9947;57.722;12.012;2024-03-29T08:04:07;95348.66;;;10.02;100.00
19600;BME280;9947;57.722;12.012;2024-03-29T08:06:34;95404.69;;;9.83;100.00
19600;BME280;9947;57.722;12.012;2024-03-29T08:09:02;95428.53;;;9.75;100.00
19600;BME280;9947;57.722;12.012;2024-03-29T08:11:29;95470.38;;;9.77;100.00
19600;BME280;9947;57.722;12.012;2024-03-29T08:13:56;95461.16;;;9.73;100.00
19600;BME280;9947;57.722;12.012;2024-03-29T08:16:23;95476.41;;;9.96;100.00
19600;BME280;9947;57.722;12.012;2024-03-29T08:18:50;95588.97;;;10.01;100.00
19600;BME280;9947;57.722;12.012;2024-03-29T08:21:19;95627.25;;;10.26;100.00
19600;BME280;9947;57.722;12.012;2024-03-29T08:23:48;95671.00;;;10.68;100.00
19600;BME280;9947;57.722;12.012;2024-03-29T08:26:17;95847.06;;;10.94;100.00
19600;BME280;9947;57.722;12.012;2024-03-29T08:28:45;95971.31;;;11.05;100.00
19600;BME280;9947;57.722;12.012;2024-03-29T08:31:13;96068.19;;;10.90;100.00
19600;BME280;9947;57.722;12.012;2024-03-29T08:33:40;96107.41;;;10.81;100.00
19600;BME280;9947;57.722;12.012;2024-03-29T08:36:09;96105.41;;;10.16;100.00
19600;BME280;9947;57.722;12.012;2024-03-29T08:38:37;96105.41;;;10.16;100.00
19600;BME280;9947;57.722;12.012;2024-03-29T08:41:06;96126.66;;;10.73;100.00
19600;BME280;9947;57.722;12.012;2024-03-29T08:43:37;96268.16;;;11.02;100.00
19600;BME280;9947;57.722;12.012;2024-03-29T08:48:31;96484.56;;;11.37;100.00
19600;BME280;9947;57.722;12.012;2024-03-29T08:53:24;96796.72;;;11.72;100.00
19600;BME280;9947;57.722;12.012;2024-03-29T08:55:53;96881.91;;;11.25;100.00
19600;BME280;9947;57.722;12.012;2024-03-29T08:58:20;96919.22;;;11.41;100.00
19600;BME280;9947;57.722;12.012;2024-03-29T09:00:55;97094.09;;;11.81;100.00
19600;BME280;9947;57.722;12.012;2024-03-29T09:03:23;97219.59;;;11.93;100.00
19600;BME280;9947;57.722;12.012;2024-03-29T09:05:51;97340.78;;;11.84;100.00
19600;BME280;9947;57.722;12.012;2024-03-29T09:08:18;97399.41;;;11.64;100.00
19600;BME280;9947;57.722;12.012;2024-03-29T09:10:45;97437.81;;;11.26;100.00
19600;BME280;9947;57.722;12.012;2024-03-29T09:13:13;97427.28;;;11.51;100.00
19600;BME280;9947;57.722;12.012;2024-03-29T09:15:40;97461.84;;;11.56;100.00
19600;BME280;9947;57.722;12.012;2024-03-29T09:18:12;97530.19;;;11.36;100.00
19600;BME280;9947;57.722;12.012;2024-03-29T09:20:56;97475.66;;;11.20;100.00
19600;BME280;9947;57.722;12.012;2024-03-29T09:23:23;97499.72;;;11.15;100.00
19600;BME280;9947;57.722;12.012;2024-03-29T09:25:50;97535.41;;;10.97;100.00
19600;BME280;9947;57.722;12.012;2024-03-29T09:28:17;97486.56;;;11.05;100.00
19600;BME280;9947;57.722;12.012;2024-03-29T09:30:47;97541.31;;;11.13;100.00
19600;BME280;9947;57.722;12.012;2024-03-29T09:33:15;97541.28;;;11.07;100.00
19600;BME280;9947;57.722;12.012;2024-03-29T09:35:43;97543.22;;;10.92;100.00
19600;BME280;9947;57.722;12.012;2024-03-29T09:38:13;97530.59;;;11.27;100.00
19600;BME280;9947;57.722;12.012;2024-03-29T09:40:40;97598.31;;;11.47;100.00
19600;BME280;9947;57.722;12.012;2024-03-29T09:43:08;97730.75;;;11.89;100.00
19600;BME280;9947;57.722;12.012;2024-03-29T09:45:37;97887.94;;;12.16;100.00
19600;BME280;9947;57.722;12.012;2024-03-29T09:50:31;97920.84;;;12.13;100.00
19600;BME280;9947;57.722;12.012;2024-03-29T09:55:29;97965.41;;;11.89;100.00
19600;BME280;9947;57.722;12.012;2024-03-29T09:57:57;97988.16;;;12.16;100.00
19600;BME280;9947;57.722;12.012;2024-03-29T10:00:27;98041.91;;;12.19;100.00
19600;BME280;9947;57.722;12.012;2024-03-29T10:02:55;98045.53;;;12.04;100.00
19600;BME280;9947;57.722;12.012;2024-03-29T10:05:23;98013.44;;;12.01;100.00
19600;BME280;9947;57.722;12.012;2024-03-29T10:07:53;98035.22;;;12.36;100.00
19600;BME280;9947;57.722;12.012;2024-03-29T10:10:22;98063.34;;;12.14;100.00
19600;BME280;9947;57.722;12.012;2024-03-29T10:12:49;98051.44;;;11.93;100.00
19600;BME280;9947;57.722;12.012;2024-03-29T10:15:16;98015.03;;;11.96;100.00
19600;BME280;9947;57.722;12.012;2024-03-29T10:17:47;97918.69;;;11.80;100.00
19600;BME280;9947;57.722;12.012;2024-03-29T10:20:16;97856.81;;;11.34;100.00
19600;BME280;9947;57.722;12.012;2024-03-29T10:22:44;97680.38;;;11.04;100.00
19600;BME280;9947;57.722;12.012;2024-03-29T10:25:24;97589.09;;;10.78;100.00
19600;BME280;9947;57.722;12.012;2024-03-29T10:27:51;97367.81;;;10.49;100.00
19600;BME280;9947;57.722;12.012;2024-03-29T10:30:20;97245.34;;;10.76;100.00
19600;BME280;9947;57.722;12.012;2024-03-29T10:32:48;97329.72;;;10.85;100.00
19600;BME280;9947;57.722;12.012;2024-03-29T10:35:16;97279.03;;;10.87;100.00
19600;BME280;9947;57.722;12.012;2024-03-29T10:37:43;97369.75;;;11.09;100.00
19600;BME280;9947;57.722;12.012;2024-03-29T10:40:11;97496.81;;;11.16;100.00
19600;BME280;9947;57.722;12.012;2024-03-29T10:42:43;97519.88;;;11.12;100.00
19600;BME280;9947;57.722;12.012;2024-03-29T10:45:10;97507.97;;;11.00;100.00
19600;BME280;9947;57.722;12.012;2024-03-29T10:47:38;97578.13;;;11.15;100.00
19600;BME280;9947;57.722;12.012;2024-03-29T10:50:12;97582.38;;;10.96;100.00
19600;BME280;9947;57.722;12.012;2024-03-29T10:52:41;97550.22;;;11.07;100.00
19600;BME280;9947;57.722;12.012;2024-03-29T10:55:10;97549.53;;;10.99;100.00
19600;BME280;9947;57.722;12.012;2024-03-29T10:57:40;97471.78;;;10.66;100.00
19600;BME280;9947;57.722;12.012;2024-03-29T11:00:14;97415.72;;;10.68;100.00
19600;BME280;9947;57.722;12.012;2024-03-29T11:02:49;97473.28;;;10.69;100.00
19600;BME280;9947;57.722;12.012;2024-03-29T11:05:19;97424.31;;;10.50;100.00
19600;BME280;9947;57.722;12.012;2024-03-29T11:07:47;97433.09;;;10.59;100.00
19600;BME280;9947;57.722;12.012;2024-03-29T11:10:22;97298.38;;;10.08;100.00
19600;BME280;9947;57.722;12.012;2024-03-29T11:12:58;97268.31;;;10.53;100.00
19600;BME280;9947;57.722;12.012;2024-03-29T11:15:31;97373.13;;;10.70;100.00
19600;BME280;9947;57.722;12.012;2024-03-29T11:18:04;97373.84;;;10.51;100.00
19600;BME280;9947;57.722;12.012;2024-03-29T11:20:32;97349.44;;;10.38;100.00
19600;BME280;9947;57.722;12.012;2024-03-29T11:25:37;97335.63;;;10.54;100.00
19600;BME280;9947;57.722;12.012;2024-03-29T11:30:33;97293.84;;;10.50;100.00
19600;BME280;9947;57.722;12.012;2024-03-29T11:33:05;97269.28;;;10.38;100.00
19600;BME280;9947;57.722;12.012;2024-03-29T11:35:40;97148.28;;;10.14;100.00
19600;BME280;9947;57.722;12.012;2024-03-29T11:38:08;96989.84;;;9.88;100.00
19600;BME280;9947;57.722;12.012;2024-03-29T11:40:35;96846.06;;;9.87;100.00
19600;BME280;9947;57.722;12.012;2024-03-29T11:43:04;96858.69;;;10.13;100.00
19600;BME280;9947;57.722;12.012;2024-03-29T11:45:35;96976.59;;;10.13;100.00
19600;BME280;9947;57.722;12.012;2024-03-29T11:48:12;96939.88;;;10.18;100.00
19600;BME280;9947;57.722;12.012;2024-03-29T11:50:40;96982.91;;;10.27;100.00
19600;BME280;9947;57.722;12.012;2024-03-29T11:53:12;97052.06;;;10.41;100.00
19600;BME280;9947;57.722;12.012;2024-03-29T11:55:44;97190.41;;;10.56;100.00
19600;BME280;9947;57.722;12.012;2024-03-29T11:58:10;97249.00;;;10.49;100.00
19600;BME280;9947;57.722;12.012;2024-03-29T12:00:39;97242.72;;;10.42;100.00
19600;BME280;9947;57.722;12.012;2024-03-29T12:03:11;97272.16;;;10.30;100.00
19600;BME280;9947;57.722;12.012;2024-03-29T12:05:38;97228.47;;;10.20;100.00
19600;BME280;9947;57.722;12.012;2024-03-29T12:08:08;97210.91;;;10.37;100.00
19600;BME280;9947;57.722;12.012;2024-03-29T12:10:37;97114.34;;;10.33;100.00
19600;BME280;9947;57.722;12.012;2024-03-29T12:13:05;97125.25;;;10.11;100.00
19600;BME280;9947;57.722;12.012;2024-03-29T12:15:35;96956.84;;;9.86;100.00
19600;BME280;9947;57.722;12.012;2024-03-29T12:18:05;96706.47;;;9.56;100.00
19600;BME280;9947;57.722;12.012;2024-03-29T12:20:33;96486.94;;;9.39;100.00
19600;BME280;9947;57.722;12.012;2024-03-29T12:25:27;96402.56;;;9.32;100.00
19600;BME280;9947;57.722;12.012;2024-03-29T12:27:54;96399.03;;;9.38;100.00
19600;BME280;9947;57.722;12.012;2024-03-29T12:30:22;96417.38;;;9.54;100.00
19600;BME280;9947;57.722;12.012;2024-03-29T12:33:00;96463.81;;;9.56;100.00
19600;BME280;9947;57.722;12.012;2024-03-29T12:35:30;96588.44;;;9.72;100.00
19600;BME280;9947;57.722;12.012;2024-03-29T12:37:59;96729.47;;;9.72;100.00
19600;BME280;9947;57.722;12.012;2024-03-29T12:40:28;96778.84;;;9.93;100.00
19600;BME280;9947;57.722;12.012;2024-03-29T12:45:25;96942.16;;;10.02;100.00
19600;BME280;9947;57.722;12.012;2024-03-29T12:47:53;96991.13;;;9.99;100.00
19600;BME280;9947;57.722;12.012;2024-03-29T12:50:25;97032.84;;;9.89;100.00
19600;BME280;9947;57.722;12.012;2024-03-29T12:52:57;97025.78;;;9.95;100.00
19600;BME280;9947;57.722;12.012;2024-03-29T12:55:28;97087.03;;;10.01;100.00
19600;BME280;9947;57.722;12.012;2024-03-29T12:57:57;97081.34;;;9.83;100.00
19600;BME280;9947;57.722;12.012;2024-03-29T13:00:26;97045.66;;;9.87;100.00
19600;BME280;9947;57.722;12.012;2024-03-29T13:02:54;97089.44;;;9.83;100.00
19600;BME280;9947;57.722;12.012;2024-03-29T13:05:21;97057.56;;;10.00;100.00
19600;BME280;9947;57.722;12.012;2024-03-29T13:07:50;97095.22;;;10.21;100.00
19600;BME280;9947;57.722;12.012;2024-03-29T13:10:19;97181.66;;;10.41;100.00
19600;BME280;9947;57.722;12.012;2024-03-29T13:12:46;97271.94;;;10.79;100.00
19600;BME280;9947;57.722;12.012;2024-03-29T13:15:18;97448.28;;;10.95;100.00
19600;BME280;9947;57.722;12.012;2024-03-29T13:17:46;97526.53;;;11.09;100.00
19600;BME280;9947;57.722;12.012;2024-03-29T13:20:16;97667.88;;;11.03;100.00
19600;BME280;9947;57.722;12.012;2024-03-29T13:22:43;97672.47;;;10.81;100.00
19600;BME280;9947;57.722;12.012;2024-03-29T13:25:13;97659.84;;;10.89;100.00
19600;BME280;9947;57.722;12.012;2024-03-29T13:27:45;97694.41;;;10.93;100.00
19600;BME280;9947;57.722;12.012;2024-03-29T13:30:13;97690.41;;;10.89;100.00
19600;BME280;9947;57.722;12.012;2024-03-29T13:32:42;97623.63;;;11.11;100.00
19600;BME280;9947;57.722;12.012;2024-03-29T13:35:10;97602.31;;;11.23;100.00
19600;BME280;9947;57.722;12.012;2024-03-29T13:37:38;97614.91;;;11.43;100.00
19600;BME280;9947;57.722;12.012;2024-03-29T13:40:08;97658.50;;;11.62;100.00
19600;BME280;9947;57.722;12.012;2024-03-29T13:42:38;97723.28;;;11.14;100.00
19600;BME280;9947;57.722;12.012;2024-03-29T13:45:10;97723.66;;;11.11;100.00
19600;BME280;9947;57.722;12.012;2024-03-29T13:47:37;97721.78;;;10.90;100.00
19600;BME280;9947;57.722;12.012;2024-03-29T13:50:05;97713.00;;;10.81;100.00
19600;BME280;9947;57.722;12.012;2024-03-29T13:52:33;97774.50;;;10.43;100.00
19600;BME280;9947;57.722;12.012;2024-03-29T13:57:25;97731.50;;;10.27;100.00
19600;BME280;9947;57.722;12.012;2024-03-29T13:59:52;97704.03;;;10.24;100.00
19600;BME280;9947;57.722;12.012;2024-03-29T14:02:20;97629.47;;;10.08;100.00
19600;BME280;9947;57.722;12.012;2024-03-29T14:04:52;97449.00;;;9.98;100.00
19600;BME280;9947;57.722;12.012;2024-03-29T14:07:20;97226.19;;;9.82;100.00